sensor_id;sensor_type;location;lat;lon;timestamp;P1;durP1;ratioP1;P2;durP2;ratioP2
74900;SDS011;63461;51.416;6.758;2022-10-31T00:00:00;24.25;;;10.43;;
74900;SDS011;63461;51.416;6.758;2022-10-31T00:02:44;23.05;;;10.73;;
74900;SDS011;63461;51.416;6.758;2022-10-31T00:05:28;23.98;;;9.48;;
74900;SDS011;63461;51.416;6.758;2022-10-31T00:08:13;21.23;;;9.77;;
74900;SDS011;63461;51.416;6.758;2022-10-31T00:10:57;24.65;;;9.70;;
74900;SDS011;63461;51.416;6.758;2022-10-31T00:13:42;27.42;;;11.18;;
74900;SDS011;63461;51.416;6.758;2022-10-31T00:16:26;24.55;;;9.95;;
74900;SDS011;63461;51.416;6.758;2022-10-31T00:19:11;22.30;;;9.30;;
74900;SDS011;63461;51.416;6.758;2022-10-31T00:21:56;23.48;;;9.40;;
74900;SDS011;63461;51.416;6.758;2022-10-31T00:24:40;23.42;;;9.13;;
74900;SDS011;63461;51.416;6.758;2022-10-31T00:27:24;29.23;;;9.85;;
74900;SDS011;63461;51.416;6.758;2022-10-31T00:30:11;24.08;;;9.63;;
74900;SDS011;63461;51.416;6.758;2022-10-31T00:32:56;24.98;;;9.18;;
74900;SDS011;63461;51.416;6.758;2022-10-31T00:35:40;23.15;;;8.45;;
74900;SDS011;63461;51.416;6.758;2022-10-31T00:38:24;17.45;;;8.55;;
74900;SDS011;63461;51.416;6.758;2022-10-31T00:41:12;29.65;;;8.93;;
74900;SDS011;63461;51.416;6.758;2022-10-31T00:43:58;20.73;;;8.75;;
74900;SDS011;63461;51.416;6.758;2022-10-31T00:46:42;23.40;;;8.82;;
74900;SDS011;63461;51.416;6.758;2022-10-31T00:49:27;21.67;;;8.35;;
74900;SDS011;63461;51.416;6.758;2022-10-31T00:52:13;26.35;;;8.82;;
74900;SDS011;63461;51.416;6.758;2022-10-31T00:54:57;20.45;;;9.18;;
74900;SDS011;63461;51.416;6.758;2022-10-31T00:57:41;21.00;;;8.90;;
74900;SDS011;63461;51.416;6.758;2022-10-31T01:00:26;23.88;;;8.65;;
74900;SDS011;63461;51.416;6.758;2022-10-31T01:03:10;25.95;;;8.80;;
74900;SDS011;63461;51.416;6.758;2022-10-31T01:08:49;17.65;;;8.20;;
74900;SDS011;63461;51.416;6.758;2022-10-31T01:11:34;14.43;;;7.72;;
74900;SDS011;63461;51.416;6.758;2022-10-31T01:14:21;21.92;;;7.63;;
74900;SDS011;63461;51.416;6.758;2022-10-31T01:17:05;20.05;;;8.50;;
74900;SDS011;63461;51.416;6.758;2022-10-31T01:19:49;19.60;;;8.38;;
74900;SDS011;63461;51.416;6.758;2022-10-31T01:22:35;18.00;;;7.93;;
74900;SDS011;63461;51.416;6.758;2022-10-31T01:25:19;18.67;;;8.48;;
74900;SDS011;63461;51.416;6.758;2022-10-31T01:28:05;24.95;;;8.00;;
74900;SDS011;63461;51.416;6.758;2022-10-31T01:30:50;21.05;;;7.72;;
74900;SDS011;63461;51.416;6.758;2022-10-31T01:33:34;21.50;;;7.95;;
74900;SDS011;63461;51.416;6.758;2022-10-31T01:36:27;19.02;;;7.35;;
74900;SDS011;63461;51.416;6.758;2022-10-31T01:39:14;30.50;;;8.37;;
74900;SDS011;63461;51.416;6.758;2022-10-31T01:41:59;19.45;;;8.43;;
74900;SDS011;63461;51.416;6.758;2022-10-31T01:47:36;19.23;;;7.20;;
74900;SDS011;63461;51.416;6.758;2022-10-31T01:50:28;22.67;;;7.97;;
74900;SDS011;63461;51.416;6.758;2022-10-31T01:53:18;24.10;;;7.85;;
74900;SDS011;63461;51.416;6.758;2022-10-31T01:56:04;24.20;;;8.68;;
74900;SDS011;63461;51.416;6.758;2022-10-31T01:58:48;19.42;;;7.32;;
74900;SDS011;63461;51.416;6.758;2022-10-31T02:01:34;16.87;;;7.90;;
74900;SDS011;63461;51.416;6.758;2022-10-31T02:04:19;22.70;;;8.18;;
74900;SDS011;63461;51.416;6.758;2022-10-31T02:07:10;19.33;;;7.97;;
74900;SDS011;63461;51.416;6.758;2022-10-31T02:09:58;22.77;;;8.50;;
74900;SDS011;63461;51.416;6.758;2022-10-31T02:12:44;15.03;;;7.30;;
74900;SDS011;63461;51.416;6.758;2022-10-31T02:15:29;26.63;;;9.23;;
74900;SDS011;63461;51.416;6.758;2022-10-31T02:18:15;18.83;;;8.07;;
74900;SDS011;63461;51.416;6.758;2022-10-31T02:37:07;20.07;;;8.37;;
74900;SDS011;63461;51.416;6.758;2022-10-31T02:40:23;23.50;;;8.53;;
74900;SDS011;63461;51.416;6.758;2022-10-31T02:43:42;19.80;;;8.00;;
74900;SDS011;63461;51.416;6.758;2022-10-31T02:46:30;21.73;;;8.32;;
74900;SDS011;63461;51.416;6.758;2022-10-31T02:49:22;16.92;;;8.35;;
74900;SDS011;63461;51.416;6.758;2022-10-31T02:52:13;16.43;;;6.93;;
74900;SDS011;63461;51.416;6.758;2022-10-31T02:58:15;19.40;;;8.43;;
74900;SDS011;63461;51.416;6.758;2022-10-31T03:07:15;17.95;;;8.18;;
74900;SDS011;63461;51.416;6.758;2022-10-31T03:10:13;24.17;;;8.73;;
74900;SDS011;63461;51.416;6.758;2022-10-31T03:13:14;19.90;;;7.73;;
74900;SDS011;63461;51.416;6.758;2022-10-31T03:16:08;23.87;;;9.03;;
74900;SDS011;63461;51.416;6.758;2022-10-31T03:19:09;18.57;;;7.63;;
74900;SDS011;63461;51.416;6.758;2022-10-31T03:22:04;21.47;;;8.20;;
74900;SDS011;63461;51.416;6.758;2022-10-31T03:24:54;20.37;;;9.03;;
74900;SDS011;63461;51.416;6.758;2022-10-31T03:27:41;18.27;;;7.57;;
74900;SDS011;63461;51.416;6.758;2022-10-31T03:30:27;18.58;;;7.50;;
74900;SDS011;63461;51.416;6.758;2022-10-31T03:33:16;16.77;;;8.00;;
74900;SDS011;63461;51.416;6.758;2022-10-31T03:36:05;17.00;;;7.93;;
74900;SDS011;63461;51.416;6.758;2022-10-31T03:38:54;22.02;;;8.65;;
74900;SDS011;63461;51.416;6.758;2022-10-31T03:41:42;19.95;;;7.75;;
74900;SDS011;63461;51.416;6.758;2022-10-31T03:44:32;21.73;;;8.03;;
74900;SDS011;63461;51.416;6.758;2022-10-31T03:47:19;28.48;;;8.45;;
74900;SDS011;63461;51.416;6.758;2022-10-31T03:50:06;20.87;;;8.93;;
74900;SDS011;63461;51.416;6.758;2022-10-31T03:53:00;17.47;;;8.13;;
74900;SDS011;63461;51.416;6.758;2022-10-31T03:55:59;24.20;;;8.43;;
74900;SDS011;63461;51.416;6.758;2022-10-31T03:58:59;21.10;;;8.70;;
74900;SDS011;63461;51.416;6.758;2022-10-31T04:01:49;25.57;;;8.87;;
74900;SDS011;63461;51.416;6.758;2022-10-31T04:04:37;20.93;;;8.57;;
74900;SDS011;63461;51.416;6.758;2022-10-31T04:07:22;25.67;;;8.77;;
74900;SDS011;63461;51.416;6.758;2022-10-31T04:10:12;21.77;;;9.00;;
74900;SDS011;63461;51.416;6.758;2022-10-31T04:13:01;24.80;;;8.77;;
74900;SDS011;63461;51.416;6.758;2022-10-31T04:16:15;23.33;;;8.97;;
74900;SDS011;63461;51.416;6.758;2022-10-31T04:19:06;23.23;;;8.90;;
74900;SDS011;63461;51.416;6.758;2022-10-31T04:21:51;21.33;;;9.10;;
74900;SDS011;63461;51.416;6.758;2022-10-31T04:24:35;19.90;;;9.00;;
74900;SDS011;63461;51.416;6.758;2022-10-31T04:27:22;25.00;;;9.30;;
74900;SDS011;63461;51.416;6.758;2022-10-31T04:30:07;26.30;;;9.70;;
74900;SDS011;63461;51.416;6.758;2022-10-31T04:32:54;20.63;;;9.03;;
74900;SDS011;63461;51.416;6.758;2022-10-31T04:35:39;27.43;;;10.00;;
74900;SDS011;63461;51.416;6.758;2022-10-31T04:38:24;23.63;;;9.77;;
74900;SDS011;63461;51.416;6.758;2022-10-31T04:41:08;25.57;;;9.53;;
74900;SDS011;63461;51.416;6.758;2022-10-31T04:44:05;20.90;;;9.63;;
74900;SDS011;63461;51.416;6.758;2022-10-31T04:46:50;24.77;;;9.30;;
74900;SDS011;63461;51.416;6.758;2022-10-31T04:49:34;26.07;;;9.80;;
74900;SDS011;63461;51.416;6.758;2022-10-31T04:52:18;25.30;;;9.83;;
74900;SDS011;63461;51.416;6.758;2022-10-31T04:55:03;22.87;;;9.70;;
74900;SDS011;63461;51.416;6.758;2022-10-31T04:58:06;19.87;;;9.67;;
74900;SDS011;63461;51.416;6.758;2022-10-31T05:00:51;20.63;;;8.93;;
74900;SDS011;63461;51.416;6.758;2022-10-31T05:03:37;25.30;;;9.83;;
74900;SDS011;63461;51.416;6.758;2022-10-31T05:06:23;20.20;;;9.33;;
74900;SDS011;63461;51.416;6.758;2022-10-31T05:09:08;27.63;;;9.90;;
74900;SDS011;63461;51.416;6.758;2022-10-31T05:11:52;22.43;;;9.73;;
74900;SDS011;63461;51.416;6.758;2022-10-31T05:14:58;20.43;;;9.20;;
74900;SDS011;63461;51.416;6.758;2022-10-31T05:18:15;27.53;;;9.80;;
74900;SDS011;63461;51.416;6.758;2022-10-31T05:21:18;27.40;;;9.30;;
74900;SDS011;63461;51.416;6.758;2022-10-31T05:24:06;23.73;;;9.73;;
74900;SDS011;63461;51.416;6.758;2022-10-31T05:26:52;26.43;;;9.03;;
74900;SDS011;63461;51.416;6.758;2022-10-31T05:29:36;22.57;;;9.30;;
74900;SDS011;63461;51.416;6.758;2022-10-31T05:32:21;21.13;;;9.83;;
74900;SDS011;63461;51.416;6.758;2022-10-31T05:35:38;20.00;;;9.00;;
74900;SDS011;63461;51.416;6.758;2022-10-31T05:38:37;20.53;;;9.10;;
74900;SDS011;63461;51.416;6.758;2022-10-31T05:41:33;25.40;;;9.77;;
74900;SDS011;63461;51.416;6.758;2022-10-31T05:44:23;21.30;;;9.77;;
74900;SDS011;63461;51.416;6.758;2022-10-31T05:47:34;22.27;;;9.43;;
74900;SDS011;63461;51.416;6.758;2022-10-31T05:50:56;22.87;;;10.30;;
74900;SDS011;63461;51.416;6.758;2022-10-31T05:53:42;20.50;;;9.43;;
74900;SDS011;63461;51.416;6.758;2022-10-31T05:56:27;24.23;;;11.13;;
74900;SDS011;63461;51.416;6.758;2022-10-31T05:59:12;32.93;;;10.80;;
74900;SDS011;63461;51.416;6.758;2022-10-31T06:01:57;26.50;;;10.17;;
74900;SDS011;63461;51.416;6.758;2022-10-31T06:04:54;24.30;;;10.87;;
74900;SDS011;63461;51.416;6.758;2022-10-31T06:07:39;25.30;;;10.40;;
74900;SDS011;63461;51.416;6.758;2022-10-31T06:10:25;24.17;;;10.33;;
74900;SDS011;63461;51.416;6.758;2022-10-31T06:13:12;23.63;;;10.60;;
74900;SDS011;63461;51.416;6.758;2022-10-31T06:16:01;26.30;;;10.17;;
74900;SDS011;63461;51.416;6.758;2022-10-31T06:18:52;28.73;;;10.23;;
74900;SDS011;63461;51.416;6.758;2022-10-31T06:21:36;24.67;;;10.23;;
74900;SDS011;63461;51.416;6.758;2022-10-31T06:24:21;20.43;;;9.40;;
74900;SDS011;63461;51.416;6.758;2022-10-31T06:27:11;26.27;;;10.33;;
74900;SDS011;63461;51.416;6.758;2022-10-31T06:29:55;19.40;;;9.40;;
74900;SDS011;63461;51.416;6.758;2022-10-31T06:32:49;24.20;;;9.80;;
74900;SDS011;63461;51.416;6.758;2022-10-31T06:35:33;23.23;;;10.33;;
74900;SDS011;63461;51.416;6.758;2022-10-31T06:38:18;22.53;;;10.10;;
74900;SDS011;63461;51.416;6.758;2022-10-31T06:41:04;26.03;;;10.50;;
74900;SDS011;63461;51.416;6.758;2022-10-31T06:43:58;26.23;;;10.30;;
74900;SDS011;63461;51.416;6.758;2022-10-31T06:47:01;21.53;;;10.30;;
74900;SDS011;63461;51.416;6.758;2022-10-31T06:50:04;24.63;;;10.70;;
74900;SDS011;63461;51.416;6.758;2022-10-31T06:52:49;24.40;;;10.27;;
74900;SDS011;63461;51.416;6.758;2022-10-31T06:55:38;28.93;;;10.50;;
74900;SDS011;63461;51.416;6.758;2022-10-31T06:58:22;26.33;;;10.33;;
74900;SDS011;63461;51.416;6.758;2022-10-31T07:01:07;24.03;;;9.43;;
74900;SDS011;63461;51.416;6.758;2022-10-31T07:03:52;25.20;;;9.93;;
74900;SDS011;63461;51.416;6.758;2022-10-31T07:06:36;26.43;;;10.17;;
74900;SDS011;63461;51.416;6.758;2022-10-31T07:09:21;26.40;;;10.43;;
74900;SDS011;63461;51.416;6.758;2022-10-31T07:12:05;26.43;;;10.60;;
74900;SDS011;63461;51.416;6.758;2022-10-31T07:14:53;26.63;;;10.43;;
74900;SDS011;63461;51.416;6.758;2022-10-31T07:17:37;26.17;;;11.00;;
74900;SDS011;63461;51.416;6.758;2022-10-31T07:20:22;31.60;;;10.83;;
74900;SDS011;63461;51.416;6.758;2022-10-31T07:23:07;28.43;;;10.23;;
74900;SDS011;63461;51.416;6.758;2022-10-31T07:25:54;19.83;;;10.43;;
74900;SDS011;63461;51.416;6.758;2022-10-31T07:28:43;30.60;;;10.90;;
74900;SDS011;63461;51.416;6.758;2022-10-31T07:31:30;29.03;;;11.30;;
74900;SDS011;63461;51.416;6.758;2022-10-31T07:34:20;29.30;;;11.13;;
74900;SDS011;63461;51.416;6.758;2022-10-31T07:37:26;25.57;;;11.30;;
74900;SDS011;63461;51.416;6.758;2022-10-31T07:40:13;25.43;;;11.50;;
74900;SDS011;63461;51.416;6.758;2022-10-31T07:42:59;24.50;;;11.10;;
74900;SDS011;63461;51.416;6.758;2022-10-31T07:46:13;29.17;;;11.13;;
74900;SDS011;63461;51.416;6.758;2022-10-31T07:49:15;27.33;;;10.73;;
74900;SDS011;63461;51.416;6.758;2022-10-31T07:52:18;30.03;;;11.30;;
74900;SDS011;63461;51.416;6.758;2022-10-31T07:55:22;26.40;;;11.30;;
74900;SDS011;63461;51.416;6.758;2022-10-31T07:58:13;30.40;;;11.17;;
74900;SDS011;63461;51.416;6.758;2022-10-31T08:00:59;28.37;;;11.53;;
74900;SDS011;63461;51.416;6.758;2022-10-31T08:03:51;31.13;;;11.07;;
74900;SDS011;63461;51.416;6.758;2022-10-31T08:07:07;35.90;;;12.27;;
74900;SDS011;63461;51.416;6.758;2022-10-31T08:09:54;24.47;;;10.90;;
74900;SDS011;63461;51.416;6.758;2022-10-31T08:12:43;32.63;;;11.70;;
74900;SDS011;63461;51.416;6.758;2022-10-31T08:15:27;30.10;;;11.93;;
74900;SDS011;63461;51.416;6.758;2022-10-31T08:18:13;28.93;;;12.13;;
74900;SDS011;63461;51.416;6.758;2022-10-31T08:20:58;26.87;;;11.30;;
74900;SDS011;63461;51.416;6.758;2022-10-31T08:23:42;31.80;;;12.13;;
74900;SDS011;63461;51.416;6.758;2022-10-31T08:26:26;31.07;;;11.77;;
74900;SDS011;63461;51.416;6.758;2022-10-31T08:29:12;29.53;;;11.97;;
74900;SDS011;63461;51.416;6.758;2022-10-31T08:31:58;29.53;;;12.53;;
74900;SDS011;63461;51.416;6.758;2022-10-31T08:35:03;30.93;;;12.60;;
74900;SDS011;63461;51.416;6.758;2022-10-31T08:38:07;27.67;;;12.37;;
74900;SDS011;63461;51.416;6.758;2022-10-31T08:40:54;36.03;;;13.00;;
74900;SDS011;63461;51.416;6.758;2022-10-31T08:43:38;38.40;;;12.77;;
74900;SDS011;63461;51.416;6.758;2022-10-31T08:46:23;27.70;;;12.70;;
74900;SDS011;63461;51.416;6.758;2022-10-31T08:49:08;31.73;;;13.23;;
74900;SDS011;63461;51.416;6.758;2022-10-31T08:51:52;34.13;;;13.60;;
74900;SDS011;63461;51.416;6.758;2022-10-31T08:54:38;43.83;;;14.63;;
74900;SDS011;63461;51.416;6.758;2022-10-31T08:57:43;30.40;;;13.47;;
74900;SDS011;63461;51.416;6.758;2022-10-31T09:00:29;32.83;;;13.40;;
74900;SDS011;63461;51.416;6.758;2022-10-31T09:03:24;32.93;;;13.80;;
74900;SDS011;63461;51.416;6.758;2022-10-31T09:06:11;35.40;;;14.07;;
74900;SDS011;63461;51.416;6.758;2022-10-31T09:08:55;34.43;;;13.73;;
74900;SDS011;63461;51.416;6.758;2022-10-31T09:11:42;36.13;;;13.73;;
74900;SDS011;63461;51.416;6.758;2022-10-31T09:14:45;40.63;;;14.07;;
74900;SDS011;63461;51.416;6.758;2022-10-31T09:17:45;36.90;;;14.02;;
74900;SDS011;63461;51.416;6.758;2022-10-31T09:20:39;43.90;;;16.20;;
74900;SDS011;63461;51.416;6.758;2022-10-31T09:23:24;45.50;;;16.53;;
74900;SDS011;63461;51.416;6.758;2022-10-31T09:26:09;42.83;;;15.60;;
74900;SDS011;63461;51.416;6.758;2022-10-31T09:28:55;45.50;;;17.00;;
74900;SDS011;63461;51.416;6.758;2022-10-31T09:31:41;41.93;;;15.77;;
74900;SDS011;63461;51.416;6.758;2022-10-31T09:34:43;46.00;;;16.17;;
74900;SDS011;63461;51.416;6.758;2022-10-31T09:37:29;37.67;;;15.10;;
74900;SDS011;63461;51.416;6.758;2022-10-31T09:40:13;45.58;;;18.55;;
74900;SDS011;63461;51.416;6.758;2022-10-31T09:43:02;39.95;;;16.45;;
74900;SDS011;63461;51.416;6.758;2022-10-31T09:45:56;46.72;;;15.43;;
74900;SDS011;63461;51.416;6.758;2022-10-31T09:52:26;33.47;;;14.00;;
74900;SDS011;63461;51.416;6.758;2022-10-31T09:55:20;37.57;;;13.87;;
74900;SDS011;63461;51.416;6.758;2022-10-31T09:58:15;36.25;;;14.27;;
74900;SDS011;63461;51.416;6.758;2022-10-31T10:01:03;35.90;;;13.80;;
74900;SDS011;63461;51.416;6.758;2022-10-31T10:03:50;29.65;;;12.70;;
74900;SDS011;63461;51.416;6.758;2022-10-31T10:06:57;35.38;;;14.23;;
74900;SDS011;63461;51.416;6.758;2022-10-31T10:10:08;36.90;;;13.63;;
74900;SDS011;63461;51.416;6.758;2022-10-31T10:13:33;35.15;;;14.45;;
74900;SDS011;63461;51.416;6.758;2022-10-31T10:16:30;37.67;;;13.32;;
74900;SDS011;63461;51.416;6.758;2022-10-31T10:22:46;40.75;;;14.95;;
74900;SDS011;63461;51.416;6.758;2022-10-31T10:25:40;34.10;;;13.48;;
74900;SDS011;63461;51.416;6.758;2022-10-31T10:28:32;38.58;;;14.55;;
74900;SDS011;63461;51.416;6.758;2022-10-31T10:31:23;35.78;;;14.43;;
74900;SDS011;63461;51.416;6.758;2022-10-31T10:34:21;41.97;;;15.88;;
74900;SDS011;63461;51.416;6.758;2022-10-31T10:49:51;33.45;;;14.98;;
74900;SDS011;63461;51.416;6.758;2022-10-31T10:59:00;49.50;;;15.88;;
74900;SDS011;63461;51.416;6.758;2022-10-31T11:01:45;36.92;;;15.98;;
74900;SDS011;63461;51.416;6.758;2022-10-31T11:04:35;36.03;;;14.95;;
74900;SDS011;63461;51.416;6.758;2022-10-31T11:07:23;39.95;;;15.02;;
74900;SDS011;63461;51.416;6.758;2022-10-31T11:10:11;33.30;;;14.15;;
74900;SDS011;63461;51.416;6.758;2022-10-31T11:15:55;34.22;;;13.95;;
74900;SDS011;63461;51.416;6.758;2022-10-31T11:18:45;33.05;;;13.95;;
74900;SDS011;63461;51.416;6.758;2022-10-31T11:21:31;34.50;;;14.30;;
74900;SDS011;63461;51.416;6.758;2022-10-31T11:24:19;35.33;;;13.43;;
74900;SDS011;63461;51.416;6.758;2022-10-31T11:27:12;32.83;;;13.70;;
74900;SDS011;63461;51.416;6.758;2022-10-31T11:30:06;28.60;;;11.15;;
74900;SDS011;63461;51.416;6.758;2022-10-31T11:32:50;21.67;;;10.00;;
74900;SDS011;63461;51.416;6.758;2022-10-31T11:35:38;25.65;;;10.93;;
74900;SDS011;63461;51.416;6.758;2022-10-31T11:38:24;30.25;;;12.75;;
74900;SDS011;63461;51.416;6.758;2022-10-31T11:41:19;27.45;;;13.05;;
74900;SDS011;63461;51.416;6.758;2022-10-31T11:44:19;30.00;;;13.45;;
74900;SDS011;63461;51.416;6.758;2022-10-31T11:47:06;25.73;;;12.32;;
74900;SDS011;63461;51.416;6.758;2022-10-31T11:50:02;28.75;;;12.02;;
74900;SDS011;63461;51.416;6.758;2022-10-31T11:52:54;29.17;;;10.98;;
74900;SDS011;63461;51.416;6.758;2022-10-31T11:55:39;27.90;;;11.85;;
74900;SDS011;63461;51.416;6.758;2022-10-31T11:58:25;27.45;;;10.57;;
74900;SDS011;63461;51.416;6.758;2022-10-31T12:01:23;29.23;;;11.82;;
74900;SDS011;63461;51.416;6.758;2022-10-31T12:04:10;28.92;;;11.40;;
74900;SDS011;63461;51.416;6.758;2022-10-31T12:06:54;30.77;;;11.45;;
74900;SDS011;63461;51.416;6.758;2022-10-31T12:09:39;26.38;;;9.88;;
74900;SDS011;63461;51.416;6.758;2022-10-31T12:15:35;23.13;;;11.00;;
74900;SDS011;63461;51.416;6.758;2022-10-31T12:30:48;24.05;;;9.18;;
74900;SDS011;63461;51.416;6.758;2022-10-31T12:39:46;23.95;;;8.40;;
74900;SDS011;63461;51.416;6.758;2022-10-31T12:42:55;26.80;;;8.32;;
74900;SDS011;63461;51.416;6.758;2022-10-31T12:45:50;28.10;;;8.02;;
74900;SDS011;63461;51.416;6.758;2022-10-31T12:48:48;22.25;;;7.40;;
74900;SDS011;63461;51.416;6.758;2022-10-31T12:58:17;16.38;;;6.88;;
74900;SDS011;63461;51.416;6.758;2022-10-31T13:07:34;15.82;;;6.28;;
74900;SDS011;63461;51.416;6.758;2022-10-31T13:10:21;21.02;;;6.10;;
74900;SDS011;63461;51.416;6.758;2022-10-31T13:16:04;18.75;;;6.05;;
74900;SDS011;63461;51.416;6.758;2022-10-31T13:24:54;29.98;;;5.65;;
74900;SDS011;63461;51.416;6.758;2022-10-31T13:27:57;17.02;;;5.10;;
74900;SDS011;63461;51.416;6.758;2022-10-31T13:30:47;16.85;;;5.03;;
74900;SDS011;63461;51.416;6.758;2022-10-31T13:36:58;17.20;;;4.90;;
74900;SDS011;63461;51.416;6.758;2022-10-31T13:43:51;15.70;;;5.20;;
74900;SDS011;63461;51.416;6.758;2022-10-31T13:46:46;15.00;;;5.30;;
74900;SDS011;63461;51.416;6.758;2022-10-31T13:52:15;14.63;;;5.13;;
74900;SDS011;63461;51.416;6.758;2022-10-31T13:55:07;22.92;;;5.03;;
74900;SDS011;63461;51.416;6.758;2022-10-31T13:58:28;15.05;;;4.40;;
74900;SDS011;63461;51.416;6.758;2022-10-31T14:01:17;14.85;;;3.90;;
74900;SDS011;63461;51.416;6.758;2022-10-31T14:07:13;12.00;;;3.70;;
74900;SDS011;63461;51.416;6.758;2022-10-31T14:13:20;16.88;;;3.72;;
74900;SDS011;63461;51.416;6.758;2022-10-31T14:16:18;11.23;;;3.80;;
74900;SDS011;63461;51.416;6.758;2022-10-31T14:19:08;11.10;;;3.80;;
74900;SDS011;63461;51.416;6.758;2022-10-31T14:22:00;13.55;;;5.03;;
74900;SDS011;63461;51.416;6.758;2022-10-31T14:24:44;17.25;;;3.97;;
74900;SDS011;63461;51.416;6.758;2022-10-31T14:30:17;12.80;;;3.45;;
74900;SDS011;63461;51.416;6.758;2022-10-31T14:33:12;16.02;;;4.28;;
74900;SDS011;63461;51.416;6.758;2022-10-31T14:36:15;13.48;;;4.55;;
74900;SDS011;63461;51.416;6.758;2022-10-31T14:39:17;14.65;;;3.38;;
74900;SDS011;63461;51.416;6.758;2022-10-31T14:42:14;16.77;;;3.20;;
74900;SDS011;63461;51.416;6.758;2022-10-31T14:51:44;10.63;;;3.10;;
74900;SDS011;63461;51.416;6.758;2022-10-31T14:54:32;12.18;;;3.25;;
74900;SDS011;63461;51.416;6.758;2022-10-31T14:57:22;9.73;;;2.95;;
74900;SDS011;63461;51.416;6.758;2022-10-31T15:00:19;12.15;;;2.80;;
74900;SDS011;63461;51.416;6.758;2022-10-31T15:06:00;16.95;;;3.20;;
74900;SDS011;63461;51.416;6.758;2022-10-31T15:09:01;11.25;;;2.75;;
74900;SDS011;63461;51.416;6.758;2022-10-31T15:11:45;11.18;;;3.58;;
74900;SDS011;63461;51.416;6.758;2022-10-31T15:14:30;11.00;;;3.50;;
74900;SDS011;63461;51.416;6.758;2022-10-31T15:17:15;12.18;;;3.45;;
74900;SDS011;63461;51.416;6.758;2022-10-31T15:20:00;7.25;;;3.10;;
74900;SDS011;63461;51.416;6.758;2022-10-31T15:22:46;12.32;;;3.28;;
74900;SDS011;63461;51.416;6.758;2022-10-31T15:25:33;11.32;;;3.45;;
74900;SDS011;63461;51.416;6.758;2022-10-31T15:28:22;15.30;;;3.38;;
74900;SDS011;63461;51.416;6.758;2022-10-31T15:31:17;13.48;;;3.38;;
74900;SDS011;63461;51.416;6.758;2022-10-31T15:34:14;18.73;;;4.75;;
74900;SDS011;63461;51.416;6.758;2022-10-31T15:37:03;14.35;;;5.00;;
74900;SDS011;63461;51.416;6.758;2022-10-31T15:39:48;14.68;;;4.13;;
74900;SDS011;63461;51.416;6.758;2022-10-31T15:42:34;17.48;;;3.92;;
74900;SDS011;63461;51.416;6.758;2022-10-31T15:45:24;15.23;;;3.80;;
74900;SDS011;63461;51.416;6.758;2022-10-31T15:48:15;10.98;;;3.70;;
74900;SDS011;63461;51.416;6.758;2022-10-31T15:51:02;16.65;;;4.03;;
74900;SDS011;63461;51.416;6.758;2022-10-31T15:53:47;8.75;;;3.05;;
74900;SDS011;63461;51.416;6.758;2022-10-31T15:56:36;12.18;;;3.17;;
74900;SDS011;63461;51.416;6.758;2022-10-31T15:59:22;16.15;;;3.92;;
74900;SDS011;63461;51.416;6.758;2022-10-31T16:02:09;15.07;;;3.97;;
74900;SDS011;63461;51.416;6.758;2022-10-31T16:04:57;19.80;;;3.95;;
74900;SDS011;63461;51.416;6.758;2022-10-31T16:07:49;11.55;;;3.60;;
74900;SDS011;63461;51.416;6.758;2022-10-31T16:10:35;12.27;;;3.38;;
74900;SDS011;63461;51.416;6.758;2022-10-31T16:13:21;9.45;;;3.45;;
74900;SDS011;63461;51.416;6.758;2022-10-31T16:16:14;12.65;;;3.95;;
74900;SDS011;63461;51.416;6.758;2022-10-31T16:19:00;8.00;;;3.90;;
74900;SDS011;63461;51.416;6.758;2022-10-31T16:21:46;14.50;;;4.18;;
74900;SDS011;63461;51.416;6.758;2022-10-31T16:24:42;13.38;;;3.55;;
74900;SDS011;63461;51.416;6.758;2022-10-31T16:27:31;12.93;;;4.53;;
74900;SDS011;63461;51.416;6.758;2022-10-31T16:33:29;12.90;;;4.53;;
74900;SDS011;63461;51.416;6.758;2022-10-31T16:36:33;14.48;;;4.38;;
74900;SDS011;63461;51.416;6.758;2022-10-31T16:39:22;15.85;;;4.47;;
74900;SDS011;63461;51.416;6.758;2022-10-31T16:42:07;14.52;;;4.53;;
74900;SDS011;63461;51.416;6.758;2022-10-31T16:44:53;11.73;;;3.80;;
74900;SDS011;63461;51.416;6.758;2022-10-31T16:47:38;14.20;;;4.70;;
74900;SDS011;63461;51.416;6.758;2022-10-31T16:50:23;22.65;;;4.85;;
74900;SDS011;63461;51.416;6.758;2022-10-31T16:53:09;9.73;;;4.65;;
74900;SDS011;63461;51.416;6.758;2022-10-31T16:55:56;11.15;;;4.95;;
74900;SDS011;63461;51.416;6.758;2022-10-31T16:58:42;21.70;;;5.13;;
74900;SDS011;63461;51.416;6.758;2022-10-31T17:01:27;11.70;;;5.13;;
74900;SDS011;63461;51.416;6.758;2022-10-31T17:04:13;18.45;;;5.97;;
74900;SDS011;63461;51.416;6.758;2022-10-31T17:06:58;12.00;;;5.28;;
74900;SDS011;63461;51.416;6.758;2022-10-31T17:09:42;15.68;;;5.60;;
74900;SDS011;63461;51.416;6.758;2022-10-31T17:12:26;18.38;;;6.65;;
74900;SDS011;63461;51.416;6.758;2022-10-31T17:15:36;16.77;;;6.20;;
74900;SDS011;63461;51.416;6.758;2022-10-31T17:18:24;26.08;;;7.25;;
74900;SDS011;63461;51.416;6.758;2022-10-31T17:21:09;23.45;;;6.35;;
74900;SDS011;63461;51.416;6.758;2022-10-31T17:23:59;23.13;;;6.55;;
74900;SDS011;63461;51.416;6.758;2022-10-31T17:26:44;20.13;;;6.47;;
74900;SDS011;63461;51.416;6.758;2022-10-31T17:29:28;21.95;;;7.00;;
74900;SDS011;63461;51.416;6.758;2022-10-31T17:32:12;20.40;;;8.48;;
74900;SDS011;63461;51.416;6.758;2022-10-31T17:34:56;24.00;;;7.53;;
74900;SDS011;63461;51.416;6.758;2022-10-31T17:37:41;22.08;;;8.10;;
74900;SDS011;63461;51.416;6.758;2022-10-31T17:40:27;17.52;;;7.20;;
74900;SDS011;63461;51.416;6.758;2022-10-31T17:43:11;19.70;;;8.07;;
74900;SDS011;63461;51.416;6.758;2022-10-31T17:45:57;26.00;;;8.05;;
74900;SDS011;63461;51.416;6.758;2022-10-31T17:48:43;18.00;;;7.47;;
74900;SDS011;63461;51.416;6.758;2022-10-31T17:51:27;25.70;;;8.85;;
74900;SDS011;63461;51.416;6.758;2022-10-31T17:54:12;14.05;;;4.93;;
74900;SDS011;63461;51.416;6.758;2022-10-31T17:56:56;15.85;;;4.47;;
74900;SDS011;63461;51.416;6.758;2022-10-31T17:59:41;13.68;;;4.13;;
74900;SDS011;63461;51.416;6.758;2022-10-31T18:02:25;10.43;;;3.97;;
74900;SDS011;63461;51.416;6.758;2022-10-31T18:05:09;10.02;;;4.25;;
74900;SDS011;63461;51.416;6.758;2022-10-31T18:07:54;14.23;;;4.55;;
74900;SDS011;63461;51.416;6.758;2022-10-31T18:10:38;11.00;;;3.88;;
74900;SDS011;63461;51.416;6.758;2022-10-31T18:13:22;8.25;;;3.33;;
74900;SDS011;63461;51.416;6.758;2022-10-31T18:16:11;12.40;;;3.47;;
74900;SDS011;63461;51.416;6.758;2022-10-31T18:18:57;10.52;;;3.47;;
74900;SDS011;63461;51.416;6.758;2022-10-31T18:21:44;11.40;;;4.00;;
74900;SDS011;63461;51.416;6.758;2022-10-31T18:24:29;12.68;;;3.28;;
74900;SDS011;63461;51.416;6.758;2022-10-31T18:27:13;11.95;;;3.33;;
74900;SDS011;63461;51.416;6.758;2022-10-31T18:29:58;12.98;;;4.38;;
74900;SDS011;63461;51.416;6.758;2022-10-31T18:32:42;9.13;;;3.47;;
74900;SDS011;63461;51.416;6.758;2022-10-31T18:35:26;13.15;;;4.63;;
74900;SDS011;63461;51.416;6.758;2022-10-31T18:38:11;14.35;;;4.40;;
74900;SDS011;63461;51.416;6.758;2022-10-31T18:40:55;8.63;;;3.22;;
74900;SDS011;63461;51.416;6.758;2022-10-31T18:43:39;11.85;;;3.30;;
74900;SDS011;63461;51.416;6.758;2022-10-31T18:46:24;12.60;;;3.22;;
74900;SDS011;63461;51.416;6.758;2022-10-31T18:49:10;9.63;;;2.90;;
74900;SDS011;63461;51.416;6.758;2022-10-31T18:51:54;12.00;;;3.25;;
74900;SDS011;63461;51.416;6.758;2022-10-31T18:54:38;14.93;;;3.05;;
74900;SDS011;63461;51.416;6.758;2022-10-31T18:57:22;8.40;;;2.80;;